sensor_id;sensor_type;location;lat;lon;timestamp;temperature;humidity
38938;DHT22;24727;51.974;20.868;2023-06-24T00:01:42;19.80;1.00
38938;DHT22;24727;51.974;20.868;2023-06-24T00:04:08;19.60;1.00
38938;DHT22;24727;51.974;20.868;2023-06-24T00:06:34;19.40;1.00
38938;DHT22;24727;51.974;20.868;2023-06-24T00:09:00;19.40;1.00
38938;DHT22;24727;51.974;20.868;2023-06-24T00:11:30;19.40;1.00
38938;DHT22;24727;51.974;20.868;2023-06-24T00:13:56;19.40;1.00
38938;DHT22;24727;51.974;20.868;2023-06-24T00:16:22;19.20;1.00
38938;DHT22;24727;51.974;20.868;2023-06-24T00:18:52;19.20;1.00
38938;DHT22;24727;51.974;20.868;2023-06-24T00:21:19;19.20;1.00
38938;DHT22;24727;51.974;20.868;2023-06-24T00:23:45;19.00;1.00
38938;DHT22;24727;51.974;20.868;2023-06-24T00:26:15;18.80;1.00
38938;DHT22;24727;51.974;20.868;2023-06-24T00:28:42;18.80;1.00
38938;DHT22;24727;51.974;20.868;2023-06-24T00:31:08;18.70;1.00
38938;DHT22;24727;51.974;20.868;2023-06-24T00:33:33;18.70;1.00
38938;DHT22;24727;51.974;20.868;2023-06-24T00:36:03;18.70;1.00
38938;DHT22;24727;51.974;20.868;2023-06-24T00:38:29;18.60;1.00
38938;DHT22;24727;51.974;20.868;2023-06-24T00:40:59;18.60;1.00
38938;DHT22;24727;51.974;20.868;2023-06-24T00:43:25;18.60;1.00
38938;DHT22;24727;51.974;20.868;2023-06-24T00:45:52;18.60;1.00
38938;DHT22;24727;51.974;20.868;2023-06-24T00:48:20;18.80;1.00
38938;DHT22;24727;51.974;20.868;2023-06-24T00:50:47;18.90;1.00
38938;DHT22;24727;51.974;20.868;2023-06-24T00:53:18;18.90;1.00
38938;DHT22;24727;51.974;20.868;2023-06-24T00:55:47;18.60;1.00
38938;DHT22;24727;51.974;20.868;2023-06-24T00:58:15;18.40;1.00
38938;DHT22;24727;51.974;20.868;2023-06-24T01:00:45;18.30;1.00
38938;DHT22;24727;51.974;20.868;2023-06-24T01:03:11;18.20;1.00
38938;DHT22;24727;51.974;20.868;2023-06-24T01:05:43;18.20;1.00
38938;DHT22;24727;51.974;20.868;2023-06-24T01:08:08;18.20;1.00
38938;DHT22;24727;51.974;20.868;2023-06-24T01:10:37;18.30;1.00
38938;DHT22;24727;51.974;20.868;2023-06-24T01:13:04;18.30;1.00
38938;DHT22;24727;51.974;20.868;2023-06-24T01:15:30;18.30;1.00
38938;DHT22;24727;51.974;20.868;2023-06-24T01:20:47;18.10;1.00
38938;DHT22;24727;51.974;20.868;2023-06-24T01:26:05;17.80;1.00
38938;DHT22;24727;51.974;20.868;2023-06-24T01:28:55;17.70;1.00
38938;DHT22;24727;51.974;20.868;2023-06-24T01:36:39;17.60;1.00
38938;DHT22;24727;51.974;20.868;2023-06-24T01:39:09;17.60;1.00
38938;DHT22;24727;51.974;20.868;2023-06-24T01:41:54;17.50;1.00
38938;DHT22;24727;51.974;20.868;2023-06-24T01:44:21;17.60;1.00
38938;DHT22;24727;51.974;20.868;2023-06-24T01:46:50;17.70;1.00
38938;DHT22;24727;51.974;20.868;2023-06-24T01:49:19;17.70;1.00
38938;DHT22;24727;51.974;20.868;2023-06-24T01:51:47;17.60;1.00
38938;DHT22;24727;51.974;20.868;2023-06-24T01:54:20;17.60;1.00
38938;DHT22;24727;51.974;20.868;2023-06-24T01:56:49;17.60;1.00
38938;DHT22;24727;51.974;20.868;2023-06-24T01:59:18;17.60;1.00
38938;DHT22;24727;51.974;20.868;2023-06-24T02:01:47;17.50;1.00
38938;DHT22;24727;51.974;20.868;2023-06-24T02:04:14;17.50;1.00
38938;DHT22;24727;51.974;20.868;2023-06-24T02:06:42;17.50;1.00
38938;DHT22;24727;51.974;20.868;2023-06-24T02:09:10;17.40;1.00
38938;DHT22;24727;51.974;20.868;2023-06-24T02:11:37;17.40;1.00
38938;DHT22;24727;51.974;20.868;2023-06-24T02:14:06;17.40;1.00
38938;DHT22;24727;51.974;20.868;2023-06-24T02:16:34;17.40;1.00
38938;DHT22;24727;51.974;20.868;2023-06-24T02:19:01;17.40;1.00
38938;DHT22;24727;51.974;20.868;2023-06-24T02:21:28;17.40;1.00
38938;DHT22;24727;51.974;20.868;2023-06-24T02:23:54;17.40;1.00
38938;DHT22;24727;51.974;20.868;2023-06-24T02:26:23;17.40;1.00
38938;DHT22;24727;51.974;20.868;2023-06-24T02:28:52;17.30;1.00
38938;DHT22;24727;51.974;20.868;2023-06-24T02:31:19;17.40;1.00
38938;DHT22;24727;51.974;20.868;2023-06-24T02:33:45;17.40;1.00
38938;DHT22;24727;51.974;20.868;2023-06-24T02:36:11;17.40;1.00
38938;DHT22;24727;51.974;20.868;2023-06-24T02:38:38;17.30;1.00
38938;DHT22;24727;51.974;20.868;2023-06-24T02:41:04;17.30;1.00
38938;DHT22;24727;51.974;20.868;2023-06-24T02:43:31;17.30;1.00
38938;DHT22;24727;51.974;20.868;2023-06-24T02:46:01;17.30;1.00
38938;DHT22;24727;51.974;20.868;2023-06-24T02:48:30;17.20;1.00
38938;DHT22;24727;51.974;20.868;2023-06-24T02:50:58;17.20;1.00
38938;DHT22;24727;51.974;20.868;2023-06-24T02:53:25;17.20;1.00
38938;DHT22;24727;51.974;20.868;2023-06-24T02:55:52;17.20;1.00
38938;DHT22;24727;51.974;20.868;2023-06-24T02:58:20;17.20;1.00
38938;DHT22;24727;51.974;20.868;2023-06-24T03:00:46;17.20;1.00
38938;DHT22;24727;51.974;20.868;2023-06-24T03:03:17;17.10;1.00
38938;DHT22;24727;51.974;20.868;2023-06-24T03:05:43;17.10;1.00
38938;DHT22;24727;51.974;20.868;2023-06-24T03:08:10;17.10;1.00
38938;DHT22;24727;51.974;20.868;2023-06-24T03:10:41;17.10;1.00
38938;DHT22;24727;51.974;20.868;2023-06-24T03:13:06;17.10;1.00
38938;DHT22;24727;51.974;20.868;2023-06-24T03:15:32;17.10;1.00
38938;DHT22;24727;51.974;20.868;2023-06-24T03:18:00;17.10;1.00
38938;DHT22;24727;51.974;20.868;2023-06-24T03:20:26;17.10;1.00
38938;DHT22;24727;51.974;20.868;2023-06-24T03:22:52;17.00;1.00
38938;DHT22;24727;51.974;20.868;2023-06-24T03:25:19;17.00;1.00
38938;DHT22;24727;51.974;20.868;2023-06-24T03:27:52;17.10;1.00
38938;DHT22;24727;51.974;20.868;2023-06-24T03:30:18;17.10;1.00
38938;DHT22;24727;51.974;20.868;2023-06-24T03:32:45;17.00;1.00
38938;DHT22;24727;51.974;20.868;2023-06-24T03:35:13;17.10;1.00
38938;DHT22;24727;51.974;20.868;2023-06-24T03:37:39;17.10;1.00
38938;DHT22;24727;51.974;20.868;2023-06-24T03:40:05;17.10;1.00
38938;DHT22;24727;51.974;20.868;2023-06-24T03:42:32;17.10;1.00
38938;DHT22;24727;51.974;20.868;2023-06-24T03:44:58;17.10;1.00
38938;DHT22;24727;51.974;20.868;2023-06-24T03:47:24;17.10;1.00
38938;DHT22;24727;51.974;20.868;2023-06-24T03:49:49;17.10;1.00
38938;DHT22;24727;51.974;20.868;2023-06-24T03:52:17;17.10;1.00
38938;DHT22;24727;51.974;20.868;2023-06-24T03:54:43;17.20;1.00
38938;DHT22;24727;51.974;20.868;2023-06-24T03:57:09;17.20;1.00
38938;DHT22;24727;51.974;20.868;2023-06-24T03:59:35;17.30;1.00
38938;DHT22;24727;51.974;20.868;2023-06-24T04:02:01;17.20;1.00
38938;DHT22;24727;51.974;20.868;2023-06-24T04:04:27;17.40;1.00
38938;DHT22;24727;51.974;20.868;2023-06-24T04:06:53;17.30;1.00
38938;DHT22;24727;51.974;20.868;2023-06-24T04:09:20;17.30;1.00
38938;DHT22;24727;51.974;20.868;2023-06-24T04:11:46;17.30;1.00
38938;DHT22;24727;51.974;20.868;2023-06-24T04:14:12;17.40;1.00
38938;DHT22;24727;51.974;20.868;2023-06-24T04:16:38;17.50;1.00
38938;DHT22;24727;51.974;20.868;2023-06-24T04:19:06;17.50;1.00
38938;DHT22;24727;51.974;20.868;2023-06-24T04:21:33;17.50;1.00
38938;DHT22;24727;51.974;20.868;2023-06-24T04:24:01;17.50;1.00
38938;DHT22;24727;51.974;20.868;2023-06-24T04:26:27;17.50;1.00
38938;DHT22;24727;51.974;20.868;2023-06-24T04:28:53;17.50;1.00
38938;DHT22;24727;51.974;20.868;2023-06-24T04:31:18;17.50;1.00
38938;DHT22;24727;51.974;20.868;2023-06-24T04:33:44;17.50;1.00
38938;DHT22;24727;51.974;20.868;2023-06-24T04:36:10;17.50;1.00
38938;DHT22;24727;51.974;20.868;2023-06-24T04:38:36;17.60;1.00
38938;DHT22;24727;51.974;20.868;2023-06-24T04:41:03;17.70;1.00
38938;DHT22;24727;51.974;20.868;2023-06-24T04:43:35;17.70;1.00
38938;DHT22;24727;51.974;20.868;2023-06-24T04:46:01;17.80;1.00
38938;DHT22;24727;51.974;20.868;2023-06-24T04:48:35;18.00;1.00
38938;DHT22;24727;51.974;20.868;2023-06-24T04:51:02;18.40;1.00
38938;DHT22;24727;51.974;20.868;2023-06-24T04:53:28;18.80;1.00
38938;DHT22;24727;51.974;20.868;2023-06-24T04:55:55;19.10;1.00
38938;DHT22;24727;51.974;20.868;2023-06-24T04:58:21;19.40;1.00
38938;DHT22;24727;51.974;20.868;2023-06-24T05:00:47;19.80;1.00
38938;DHT22;24727;51.974;20.868;2023-06-24T05:03:14;19.70;1.00
38938;DHT22;24727;51.974;20.868;2023-06-24T05:05:40;19.80;1.00
38938;DHT22;24727;51.974;20.868;2023-06-24T05:08:06;19.70;1.00
38938;DHT22;24727;51.974;20.868;2023-06-24T05:10:32;19.80;1.00
38938;DHT22;24727;51.974;20.868;2023-06-24T05:12:57;19.80;1.00
38938;DHT22;24727;51.974;20.868;2023-06-24T05:15:23;19.50;1.00
38938;DHT22;24727;51.974;20.868;2023-06-24T05:17:49;19.30;1.00
38938;DHT22;24727;51.974;20.868;2023-06-24T05:20:15;19.40;1.00
38938;DHT22;24727;51.974;20.868;2023-06-24T05:22:43;19.50;1.00
38938;DHT22;24727;51.974;20.868;2023-06-24T05:25:09;19.40;1.00
38938;DHT22;24727;51.974;20.868;2023-06-24T05:27:35;19.50;1.00
38938;DHT22;24727;51.974;20.868;2023-06-24T05:30:01;19.30;1.00
38938;DHT22;24727;51.974;20.868;2023-06-24T05:32:27;19.30;1.00
38938;DHT22;24727;51.974;20.868;2023-06-24T05:34:53;19.50;1.00
38938;DHT22;24727;51.974;20.868;2023-06-24T05:37:19;19.40;1.00
38938;DHT22;24727;51.974;20.868;2023-06-24T05:39:45;19.30;1.00
38938;DHT22;24727;51.974;20.868;2023-06-24T05:42:11;19.50;1.00
38938;DHT22;24727;51.974;20.868;2023-06-24T05:44:37;19.50;1.00
38938;DHT22;24727;51.974;20.868;2023-06-24T05:47:04;19.70;1.00
38938;DHT22;24727;51.974;20.868;2023-06-24T05:49:30;19.50;1.00
38938;DHT22;24727;51.974;20.868;2023-06-24T05:51:56;19.40;1.00
38938;DHT22;24727;51.974;20.868;2023-06-24T05:54:24;19.40;1.00
38938;DHT22;24727;51.974;20.868;2023-06-24T05:56:50;19.40;1.00
38938;DHT22;24727;51.974;20.868;2023-06-24T05:59:16;19.40;1.00
38938;DHT22;24727;51.974;20.868;2023-06-24T06:01:41;19.70;1.00
38938;DHT22;24727;51.974;20.868;2023-06-24T06:04:07;19.90;1.00
38938;DHT22;24727;51.974;20.868;2023-06-24T06:06:34;20.10;1.00
38938;DHT22;24727;51.974;20.868;2023-06-24T06:09:01;20.30;1.00
38938;DHT22;24727;51.974;20.868;2023-06-24T06:11:28;20.10;1.00
38938;DHT22;24727;51.974;20.868;2023-06-24T06:13:54;20.40;1.00
38938;DHT22;24727;51.974;20.868;2023-06-24T06:16:21;20.80;1.00
38938;DHT22;24727;51.974;20.868;2023-06-24T06:18:47;20.90;1.00
38938;DHT22;24727;51.974;20.868;2023-06-24T06:21:13;20.90;1.00
38938;DHT22;24727;51.974;20.868;2023-06-24T06:23:38;20.90;1.00
38938;DHT22;24727;51.974;20.868;2023-06-24T06:26:05;21.00;1.00
38938;DHT22;24727;51.974;20.868;2023-06-24T06:28:31;20.80;1.00
38938;DHT22;24727;51.974;20.868;2023-06-24T06:30:57;20.80;1.00
38938;DHT22;24727;51.974;20.868;2023-06-24T06:33:25;20.90;1.00
38938;DHT22;24727;51.974;20.868;2023-06-24T06:35:51;21.20;1.00
38938;DHT22;24727;51.974;20.868;2023-06-24T06:38:18;21.10;1.00
38938;DHT22;24727;51.974;20.868;2023-06-24T06:40:43;21.50;1.00
38938;DHT22;24727;51.974;20.868;2023-06-24T06:43:09;22.10;1.00
38938;DHT22;24727;51.974;20.868;2023-06-24T06:45:35;22.10;1.00
38938;DHT22;24727;51.974;20.868;2023-06-24T06:48:02;22.40;1.00
38938;DHT22;24727;51.974;20.868;2023-06-24T06:50:32;22.80;1.00
38938;DHT22;24727;51.974;20.868;2023-06-24T06:52:58;22.90;1.00
38938;DHT22;24727;51.974;20.868;2023-06-24T06:55:24;22.60;1.00
38938;DHT22;24727;51.974;20.868;2023-06-24T06:57:51;23.10;1.00
38938;DHT22;24727;51.974;20.868;2023-06-24T07:00:18;22.90;1.00
38938;DHT22;24727;51.974;20.868;2023-06-24T07:02:44;22.90;1.00
38938;DHT22;24727;51.974;20.868;2023-06-24T07:05:10;23.10;1.00
38938;DHT22;24727;51.974;20.868;2023-06-24T07:07:40;23.20;1.00
38938;DHT22;24727;51.974;20.868;2023-06-24T07:10:06;23.30;1.00
38938;DHT22;24727;51.974;20.868;2023-06-24T07:12:35;23.70;1.00
38938;DHT22;24727;51.974;20.868;2023-06-24T07:15:02;24.20;1.00
38938;DHT22;24727;51.974;20.868;2023-06-24T07:17:28;24.00;1.00
38938;DHT22;24727;51.974;20.868;2023-06-24T07:19:54;24.40;1.00
38938;DHT22;24727;51.974;20.868;2023-06-24T07:22:20;24.10;1.00
38938;DHT22;24727;51.974;20.868;2023-06-24T07:24:46;23.20;1.00
38938;DHT22;24727;51.974;20.868;2023-06-24T07:27:12;23.20;1.00
38938;DHT22;24727;51.974;20.868;2023-06-24T07:29:38;23.90;1.00
38938;DHT22;24727;51.974;20.868;2023-06-24T07:32:04;23.80;1.00
38938;DHT22;24727;51.974;20.868;2023-06-24T07:34:34;23.20;1.00
38938;DHT22;24727;51.974;20.868;2023-06-24T07:37:00;22.90;1.00
38938;DHT22;24727;51.974;20.868;2023-06-24T07:39:26;23.40;1.00
38938;DHT22;24727;51.974;20.868;2023-06-24T07:41:52;23.80;1.00
38938;DHT22;24727;51.974;20.868;2023-06-24T07:44:20;24.30;1.00
38938;DHT22;24727;51.974;20.868;2023-06-24T07:46:46;24.50;1.00
38938;DHT22;24727;51.974;20.868;2023-06-24T07:49:14;23.50;1.00
38938;DHT22;24727;51.974;20.868;2023-06-24T07:51:40;24.00;1.00
38938;DHT22;24727;51.974;20.868;2023-06-24T07:54:06;23.90;1.00
38938;DHT22;24727;51.974;20.868;2023-06-24T07:56:31;23.60;1.00
38938;DHT22;24727;51.974;20.868;2023-06-24T07:58:57;23.20;1.00
38938;DHT22;24727;51.974;20.868;2023-06-24T08:01:23;23.30;1.00
38938;DHT22;24727;51.974;20.868;2023-06-24T08:03:49;23.40;1.00
38938;DHT22;24727;51.974;20.868;2023-06-24T08:06:15;23.40;1.00
38938;DHT22;24727;51.974;20.868;2023-06-24T08:08:41;23.20;1.00
38938;DHT22;24727;51.974;20.868;2023-06-24T08:11:08;23.30;1.00
38938;DHT22;24727;51.974;20.868;2023-06-24T08:13:42;23.40;1.00
38938;DHT22;24727;51.974;20.868;2023-06-24T08:16:09;23.10;1.00
38938;DHT22;24727;51.974;20.868;2023-06-24T08:18:36;22.70;1.00
38938;DHT22;24727;51.974;20.868;2023-06-24T08:21:02;23.10;1.00
38938;DHT22;24727;51.974;20.868;2023-06-24T08:23:28;23.60;1.00
38938;DHT22;24727;51.974;20.868;2023-06-24T08:25:54;23.20;1.00
38938;DHT22;24727;51.974;20.868;2023-06-24T08:28:21;23.20;1.00
38938;DHT22;24727;51.974;20.868;2023-06-24T08:30:48;24.00;1.00
38938;DHT22;24727;51.974;20.868;2023-06-24T08:33:14;24.40;1.00
38938;DHT22;24727;51.974;20.868;2023-06-24T08:35:39;24.50;1.00
38938;DHT22;24727;51.974;20.868;2023-06-24T08:38:05;24.10;1.00
38938;DHT22;24727;51.974;20.868;2023-06-24T08:40:32;24.20;1.00
38938;DHT22;24727;51.974;20.868;2023-06-24T08:42:59;24.80;1.00
38938;DHT22;24727;51.974;20.868;2023-06-24T08:45:25;24.80;1.00
38938;DHT22;24727;51.974;20.868;2023-06-24T08:47:53;24.60;1.00
38938;DHT22;24727;51.974;20.868;2023-06-24T08:50:20;24.90;1.00
38938;DHT22;24727;51.974;20.868;2023-06-24T08:52:52;25.50;1.00
38938;DHT22;24727;51.974;20.868;2023-06-24T08:55:20;24.70;1.00
38938;DHT22;24727;51.974;20.868;2023-06-24T08:57:48;23.50;1.00
38938;DHT22;24727;51.974;20.868;2023-06-24T09:00:14;23.60;1.00
38938;DHT22;24727;51.974;20.868;2023-06-24T09:02:40;23.70;1.00
38938;DHT22;24727;51.974;20.868;2023-06-24T09:05:07;24.00;1.00
38938;DHT22;24727;51.974;20.868;2023-06-24T09:07:33;23.50;1.00
38938;DHT22;24727;51.974;20.868;2023-06-24T09:10:00;22.80;1.00
38938;DHT22;24727;51.974;20.868;2023-06-24T09:12:26;22.40;1.00
38938;DHT22;24727;51.974;20.868;2023-06-24T09:14:52;22.10;1.00
38938;DHT22;24727;51.974;20.868;2023-06-24T09:17:19;22.00;1.00
38938;DHT22;24727;51.974;20.868;2023-06-24T09:19:48;21.90;1.00
38938;DHT22;24727;51.974;20.868;2023-06-24T09:22:14;22.00;1.00
38938;DHT22;24727;51.974;20.868;2023-06-24T09:24:45;21.90;1.00
38938;DHT22;24727;51.974;20.868;2023-06-24T09:27:17;21.70;1.00
38938;DHT22;24727;51.974;20.868;2023-06-24T09:29:47;21.70;1.00
38938;DHT22;24727;51.974;20.868;2023-06-24T09:32:13;21.70;1.00
38938;DHT22;24727;51.974;20.868;2023-06-24T09:34:40;21.70;1.00
38938;DHT22;24727;51.974;20.868;2023-06-24T09:37:06;21.60;1.00
38938;DHT22;24727;51.974;20.868;2023-06-24T09:39:37;21.60;1.00
38938;DHT22;24727;51.974;20.868;2023-06-24T09:42:04;21.70;1.00
38938;DHT22;24727;51.974;20.868;2023-06-24T09:44:30;21.60;1.00
38938;DHT22;24727;51.974;20.868;2023-06-24T09:46:59;21.70;1.00
38938;DHT22;24727;51.974;20.868;2023-06-24T09:49:25;21.80;1.00
38938;DHT22;24727;51.974;20.868;2023-06-24T09:51:56;21.80;1.00
38938;DHT22;24727;51.974;20.868;2023-06-24T09:54:27;21.80;1.00
38938;DHT22;24727;51.974;20.868;2023-06-24T09:56:54;21.80;1.00
38938;DHT22;24727;51.974;20.868;2023-06-24T09:59:22;21.80;1.00
38938;DHT22;24727;51.974;20.868;2023-06-24T10:01:52;21.80;1.00
38938;DHT22;24727;51.974;20.868;2023-06-24T10:04:20;21.70;1.00
38938;DHT22;24727;51.974;20.868;2023-06-24T10:06:50;21.80;1.00
38938;DHT22;24727;51.974;20.868;2023-06-24T10:09:17;21.70;1.00
38938;DHT22;24727;51.974;20.868;2023-06-24T10:11:46;21.70;1.00
38938;DHT22;24727;51.974;20.868;2023-06-24T10:14:14;21.70;1.00
38938;DHT22;24727;51.974;20.868;2023-06-24T10:16:42;21.70;1.00
38938;DHT22;24727;51.974;20.868;2023-06-24T10:19:08;21.70;1.00
38938;DHT22;24727;51.974;20.868;2023-06-24T10:21:51;21.70;1.00
38938;DHT22;24727;51.974;20.868;2023-06-24T10:24:34;21.60;1.00
38938;DHT22;24727;51.974;20.868;2023-06-24T10:27:09;21.50;1.00
38938;DHT22;24727;51.974;20.868;2023-06-24T10:29:36;21.50;1.00
38938;DHT22;24727;51.974;20.868;2023-06-24T10:32:08;21.30;1.00
38938;DHT22;24727;51.974;20.868;2023-06-24T10:37:21;21.20;1.00
38938;DHT22;24727;51.974;20.868;2023-06-24T10:39:57;21.20;1.00
38938;DHT22;24727;51.974;20.868;2023-06-24T10:42:33;21.20;1.00
38938;DHT22;24727;51.974;20.868;2023-06-24T10:47:36;21.20;1.00
38938;DHT22;24727;51.974;20.868;2023-06-24T10:50:03;21.20;1.00
38938;DHT22;24727;51.974;20.868;2023-06-24T10:52:29;21.30;1.00
38938;DHT22;24727;51.974;20.868;2023-06-24T10:54:58;21.20;1.00
38938;DHT22;24727;51.974;20.868;2023-06-24T10:57:25;21.10;1.00
38938;DHT22;24727;51.974;20.868;2023-06-24T10:59:54;21.20;1.00
38938;DHT22;24727;51.974;20.868;2023-06-24T11:02:24;21.10;1.00
38938;DHT22;24727;51.974;20.868;2023-06-24T11:04:55;21.20;1.00
38938;DHT22;24727;51.974;20.868;2023-06-24T11:07:24;21.10;1.00
38938;DHT22;24727;51.974;20.868;2023-06-24T11:09:56;21.10;1.00
38938;DHT22;24727;51.974;20.868;2023-06-24T11:12:29;21.20;1.00
38938;DHT22;24727;51.974;20.868;2023-06-24T11:14:59;21.20;1.00
38938;DHT22;24727;51.974;20.868;2023-06-24T11:17:27;21.00;1.00
38938;DHT22;24727;51.974;20.868;2023-06-24T11:19:54;21.00;1.00
38938;DHT22;24727;51.974;20.868;2023-06-24T11:22:21;20.90;1.00
38938;DHT22;24727;51.974;20.868;2023-06-24T11:24:48;20.90;1.00
38938;DHT22;24727;51.974;20.868;2023-06-24T11:27:14;20.70;1.00
38938;DHT22;24727;51.974;20.868;2023-06-24T11:29:41;20.60;1.00
38938;DHT22;24727;51.974;20.868;2023-06-24T11:32:08;20.40;1.00
38938;DHT22;24727;51.974;20.868;2023-06-24T11:34:35;20.30;1.00
38938;DHT22;24727;51.974;20.868;2023-06-24T11:37:16;20.20;1.00
38938;DHT22;24727;51.974;20.868;2023-06-24T11:39:43;20.20;1.00
38938;DHT22;24727;51.974;20.868;2023-06-24T11:42:13;20.10;1.00
38938;DHT22;24727;51.974;20.868;2023-06-24T11:44:42;20.00;1.00
38938;DHT22;24727;51.974;20.868;2023-06-24T11:47:10;20.00;1.00
38938;DHT22;24727;51.974;20.868;2023-06-24T11:49:55;20.00;1.00
38938;DHT22;24727;51.974;20.868;2023-06-24T11:55:01;20.00;1.00
38938;DHT22;24727;51.974;20.868;2023-06-24T11:57:47;20.10;1.00
38938;DHT22;24727;51.974;20.868;2023-06-24T12:00:15;20.10;1.00
38938;DHT22;24727;51.974;20.868;2023-06-24T12:02:41;20.20;1.00
38938;DHT22;24727;51.974;20.868;2023-06-24T12:05:07;20.20;1.00
38938;DHT22;24727;51.974;20.868;2023-06-24T12:07:34;20.20;1.00
38938;DHT22;24727;51.974;20.868;2023-06-24T12:10:00;20.20;1.00
38938;DHT22;24727;51.974;20.868;2023-06-24T12:12:26;20.20;1.00
38938;DHT22;24727;51.974;20.868;2023-06-24T12:14:52;20.30;1.00
38938;DHT22;24727;51.974;20.868;2023-06-24T12:17:19;20.30;1.00
38938;DHT22;24727;51.974;20.868;2023-06-24T12:19:45;20.40;1.00
38938;DHT22;24727;51.974;20.868;2023-06-24T12:22:12;20.30;1.00
38938;DHT22;24727;51.974;20.868;2023-06-24T12:24:39;20.30;1.00
38938;DHT22;24727;51.974;20.868;2023-06-24T12:27:05;20.40;1.00
38938;DHT22;24727;51.974;20.868;2023-06-24T12:29:31;20.40;1.00
38938;DHT22;24727;51.974;20.868;2023-06-24T12:31:58;20.30;1.00
38938;DHT22;24727;51.974;20.868;2023-06-24T12:34:24;20.30;1.00
38938;DHT22;24727;51.974;20.868;2023-06-24T12:36:50;20.40;1.00
38938;DHT22;24727;51.974;20.868;2023-06-24T12:39:16;20.30;1.00
38938;DHT22;24727;51.974;20.868;2023-06-24T12:41:42;20.20;1.00
38938;DHT22;24727;51.974;20.868;2023-06-24T12:44:08;20.20;1.00
38938;DHT22;24727;51.974;20.868;2023-06-24T12:46:33;20.30;1.00
38938;DHT22;24727;51.974;20.868;2023-06-24T12:48:59;20.30;1.00
38938;DHT22;24727;51.974;20.868;2023-06-24T12:51:25;20.20;1.00
38938;DHT22;24727;51.974;20.868;2023-06-24T12:53:52;20.30;1.00
38938;DHT22;24727;51.974;20.868;2023-06-24T12:56:19;20.30;1.00
38938;DHT22;24727;51.974;20.868;2023-06-24T12:58:45;20.30;1.00
38938;DHT22;24727;51.974;20.868;2023-06-24T13:01:11;20.50;1.00
38938;DHT22;24727;51.974;20.868;2023-06-24T13:03:37;20.60;1.00
38938;DHT22;24727;51.974;20.868;2023-06-24T13:06:03;20.60;1.00
38938;DHT22;24727;51.974;20.868;2023-06-24T13:08:30;20.40;1.00
38938;DHT22;24727;51.974;20.868;2023-06-24T13:10:57;20.30;1.00
38938;DHT22;24727;51.974;20.868;2023-06-24T13:13:23;20.30;1.00
38938;DHT22;24727;51.974;20.868;2023-06-24T13:15:48;20.40;1.00
38938;DHT22;24727;51.974;20.868;2023-06-24T13:18:16;20.50;1.00
38938;DHT22;24727;51.974;20.868;2023-06-24T13:20:44;20.60;1.00
38938;DHT22;24727;51.974;20.868;2023-06-24T13:23:12;20.60;1.00
38938;DHT22;24727;51.974;20.868;2023-06-24T13:25:38;20.70;1.00
38938;DHT22;24727;51.974;20.868;2023-06-24T13:28:05;20.70;1.00
38938;DHT22;24727;51.974;20.868;2023-06-24T13:30:32;20.80;1.00
38938;DHT22;24727;51.974;20.868;2023-06-24T13:32:58;21.10;1.00
38938;DHT22;24727;51.974;20.868;2023-06-24T13:35:24;21.20;1.00
38938;DHT22;24727;51.974;20.868;2023-06-24T13:37:50;21.20;1.00
38938;DHT22;24727;51.974;20.868;2023-06-24T13:40:16;21.20;1.00
38938;DHT22;24727;51.974;20.868;2023-06-24T13:42:42;21.20;1.00
38938;DHT22;24727;51.974;20.868;2023-06-24T13:45:08;21.00;1.00
38938;DHT22;24727;51.974;20.868;2023-06-24T13:47:35;21.00;1.00
38938;DHT22;24727;51.974;20.868;2023-06-24T13:50:01;20.90;1.00
38938;DHT22;24727;51.974;20.868;2023-06-24T13:52:28;20.90;1.00
38938;DHT22;24727;51.974;20.868;2023-06-24T13:54:54;20.80;1.00
38938;DHT22;24727;51.974;20.868;2023-06-24T13:57:21;20.80;1.00
38938;DHT22;24727;51.974;20.868;2023-06-24T13:59:46;20.80;1.00
38938;DHT22;24727;51.974;20.868;2023-06-24T14:02:13;20.70;1.00
38938;DHT22;24727;51.974;20.868;2023-06-24T14:04:40;20.50;1.00
38938;DHT22;24727;51.974;20.868;2023-06-24T14:07:07;20.60;1.00
38938;DHT22;24727;51.974;20.868;2023-06-24T14:09:33;20.50;1.00
38938;DHT22;24727;51.974;20.868;2023-06-24T14:12:00;20.50;1.00
38938;DHT22;24727;51.974;20.868;2023-06-24T14:14:26;20.50;1.00
38938;DHT22;24727;51.974;20.868;2023-06-24T14:16:52;20.60;1.00
38938;DHT22;24727;51.974;20.868;2023-06-24T14:19:18;20.60;1.00
38938;DHT22;24727;51.974;20.868;2023-06-24T14:21:46;20.60;1.00
38938;DHT22;24727;51.974;20.868;2023-06-24T14:24:12;20.60;1.00
38938;DHT22;24727;51.974;20.868;2023-06-24T14:26:38;20.50;1.00
38938;DHT22;24727;51.974;20.868;2023-06-24T14:29:04;20.50;1.00
38938;DHT22;24727;51.974;20.868;2023-06-24T14:31:30;20.40;1.00
38938;DHT22;24727;51.974;20.868;2023-06-24T14:33:56;20.40;1.00
38938;DHT22;24727;51.974;20.868;2023-06-24T14:36:22;20.30;1.00
38938;DHT22;24727;51.974;20.868;2023-06-24T14:38:49;20.30;1.00
38938;DHT22;24727;51.974;20.868;2023-06-24T14:41:16;20.30;1.00
38938;DHT22;24727;51.974;20.868;2023-06-24T14:43:48;20.20;1.00
38938;DHT22;24727;51.974;20.868;2023-06-24T14:46:14;20.30;1.00
38938;DHT22;24727;51.974;20.868;2023-06-24T14:48:40;20.20;1.00
38938;DHT22;24727;51.974;20.868;2023-06-24T14:51:06;20.20;1.00
38938;DHT22;24727;51.974;20.868;2023-06-24T14:53:32;20.20;1.00
38938;DHT22;24727;51.974;20.868;2023-06-24T14:55:58;20.10;1.00
38938;DHT22;24727;51.974;20.868;2023-06-24T14:58:25;20.10;1.00
38938;DHT22;24727;51.974;20.868;2023-06-24T15:00:51;20.00;1.00
38938;DHT22;24727;51.974;20.868;2023-06-24T15:03:17;20.00;1.00
38938;DHT22;24727;51.974;20.868;2023-06-24T15:05:43;20.00;1.00
38938;DHT22;24727;51.974;20.868;2023-06-24T15:08:10;20.00;1.00
38938;DHT22;24727;51.974;20.868;2023-06-24T15:10:36;19.90;1.00
38938;DHT22;24727;51.974;20.868;2023-06-24T15:13:02;19.90;1.00
38938;DHT22;24727;51.974;20.868;2023-06-24T15:15:29;19.90;1.00
38938;DHT22;24727;51.974;20.868;2023-06-24T15:17:56;19.90;1.00
38938;DHT22;24727;51.974;20.868;2023-06-24T15:20:22;19.80;1.00
38938;DHT22;24727;51.974;20.868;2023-06-24T15:22:48;19.70;1.00
38938;DHT22;24727;51.974;20.868;2023-06-24T15:25:14;19.70;1.00
38938;DHT22;24727;51.974;20.868;2023-06-24T15:27:41;19.50;1.00
38938;DHT22;24727;51.974;20.868;2023-06-24T15:30:07;19.30;1.00
38938;DHT22;24727;51.974;20.868;2023-06-24T15:32:33;19.00;1.00
38938;DHT22;24727;51.974;20.868;2023-06-24T15:35:02;18.70;1.00
38938;DHT22;24727;51.974;20.868;2023-06-24T15:37:28;18.30;1.00
38938;DHT22;24727;51.974;20.868;2023-06-24T15:39:55;18.10;1.00
38938;DHT22;24727;51.974;20.868;2023-06-24T15:42:21;18.10;1.00
38938;DHT22;24727;51.974;20.868;2023-06-24T15:44:47;18.00;1.00
38938;DHT22;24727;51.974;20.868;2023-06-24T15:47:13;17.80;1.00
38938;DHT22;24727;51.974;20.868;2023-06-24T15:49:40;17.80;1.00